Atlantic - Newfoundland: Past 24 Hour Conditions

 

Blanc-Sablon Airport

12:00 AM AST 18 January 2017
Disclaimer

This table is a summary of hourly weather conditions for the past 24 hours.
Please note that these observations might not always be representative of weather conditions over their associated marine area.

Date / Time
(AST)
Wind(knots) Conditions Visibility(km) Pressure(kPa) Air tempC) Relative humidity(%) Dew pointC) Wind Chill
18 January 2017
0:00 NNE 10 gust 17 Clear 24 102.3 -16 72 -20 -26
17 January 2017
23:00 NNW 5 Clear 24 102.4 -16 70 -21 -23
22:00 S 3 Clear 24 102.4 -16 71 -20 -20
21:00 N 23 gust 31 Drifting Snow 24 102.2 -16 74 -19 -29
20:00 NNE 22 gust 33 Blowing Snow 10 102.1 -15 75 -19 -28
19:00 N 26 gust 37 Blowing Snow 8 102.0 -16 77 -19 -29
18:00 N 23 gust 37 Blowing Snow 6 102.0 -16 75 -20 -29
17:00 NNE 25 gust 32 Drifting Snow 10 101.8 -15 74 -19 -28
16:00 NNE 19 gust 26 Drifting Snow 6 101.7 -14 75 -18 -26
15:00 NNE 23 gust 32 Blowing Snow 2 101.6 -13 78 -16 -26
14:00 NNE 22 gust 33 Blowing Snow 2 101.4 -13 79 -16 -25
13:00 NNE 26 gust 36 Blowing Snow 2 101.2 -12 84 -14 -24
12:00 NNE 28 gust 39 Blowing Snow 2 101.1 -11 85 -13 -24
11:00 NE 27 gust 34 Light Snow and Blowing Snow 1 101.0 -10 87 -12 -22
10:00 NNE 12 Cloudy 16 100.9 -8 84 -11 -16
9:00 NNE 6 Cloudy 24 100.7 -10 84 -12 -15
8:00 NE 4 Cloudy 24 100.6 -11 86 -13 -15
7:00 NE 3 Cloudy 24 100.5 -11 89 -12 -14
6:00 N 1 Cloudy 24 100.4 -10 88 -12 -12
5:00 W 6 Light Snow 5 100.4 -9 85 -11 -14
4:00 WSW 14 Light Snow 2 100.4 -7 84 -10 -15
3:00 SSE 19 Light Snow 2 100.4 -6 93 -7 -15
2:00 SE 20 gust 27 Light Snow 2 100.4 -8 90 -9 -18
1:00 SE 23 Light Snow 2 100.5 -8 87 -10 -18
0:00 SE 20 gust 25 Light Snow 2 100.7 -8 86 -10 -18

Zoom-in to make a selection

Map of Atlantic - Newfoundland marine weather areas Southwestern Grand Banks - 44138 Banquereau - 44139 Tail of the Bank - 44140 Nickerson Bank - 44251 Northeast Burgeo Bank - 44255 Blanc-Sablon Airport Cap Whittle Chevery Natashquan Airport Heath Point Miscou Island Grand Étang Ingonish Beach North Mountain St.Paul Island J.A. Douglas McCurdy Sydney Airport Charlottetown Airport East Point North Cape Argentia Bonavista Burgeo Cape Race Corner Brook Daniel's Harbour Englee Ferolle Point La Scie Port aux Basques Rocky Harbour Sagona Island St. Anthony Airport St. John's Int'l Airport St. Lawrence Stephenville Airport Twillingate Winterland Wreckhouse Cartwright Airport Mary's Harbour Grates Cove Pool's Island Marticot Island Long Pond Eskasoni (First Nations) Îles de la Madeleine Airport
Legend:
buoy Buoy
land station Land Station

Atlantic - Newfoundland Area

Another Region

What we are doing

Date modified: